Time;durP1;ratioP1;P1;durP2;ratioP2;P2;SDS_P1;SDS_P2;PMS_P1;PMS_P2;Temp;Humidity;BMP_temperature;BMP_pressure;BME280_temperature;BME280_humidity;BME280_pressure;Samples;Min_cycle;Max_cycle;Signal;HPM_P1;HPM_P2
2022/02/10 00:07:27;;;;;;;;;;;2.60;99.90;;;;;;5032486;28;19956;-77
2022/02/10 00:15:42;;;;;;;;;;;2.30;99.90;;;;;;5023084;28;19917;-79
2022/02/10 00:20:50;;;;;;;;;;;2.20;99.90;;;;;;5026353;28;19939;-77
2022/02/10 00:34:29;;;;;;;;;;;2.10;99.90;;;;;;4961929;28;19949;-79
2022/02/10 00:41:59;;;;;;;;;;;2.10;99.90;;;;;;5031166;28;19913;-77
2022/02/10 00:44:25;;;;;;;;;;;2.10;99.90;;;;;;5031221;28;19917;-77
2022/02/10 00:46:51;;;;;;;;;;;2.00;99.90;;;;;;5024536;28;19965;-78
2022/02/10 00:49:17;;;;;;;;;;;2.00;99.90;;;;;;5022932;28;19964;-77
2022/02/10 00:51:42;;;;;;;;;;;1.90;99.90;;;;;;5013864;28;19913;-77
2022/02/10 00:54:10;;;;;;;;;;;1.90;99.90;;;;;;5026825;28;20011;-79
2022/02/10 00:56:36;;;;;;;;;;;1.90;99.90;;;;;;5031185;28;19967;-80
2022/02/10 00:59:23;;;;;;;;;;;1.80;99.90;;;;;;5017694;28;19913;-77
2022/02/10 01:12:45;;;;;;;;;;;1.80;99.90;;;;;;5028669;28;19948;-79
2022/02/10 01:31:36;;;;;;;;;;;1.60;99.90;;;;;;5026615;28;19922;-77
2022/02/10 01:34:02;;;;;;;;;;;1.50;99.90;;;;;;5013759;28;20446;-77
2022/02/10 01:36:28;;;;;;;;;;;1.50;99.90;;;;;;5030863;28;19913;-77
2022/02/10 01:38:53;;;;;;;;;;;1.50;99.90;;;;;;5025019;28;19917;-79
2022/02/10 02:03:23;;;;;;;;;;;1.50;99.90;;;;;;5019492;28;19913;-77
2022/02/10 02:05:54;;;;;;;;;;;1.50;99.90;;;;;;5030489;28;19917;-78
2022/02/10 02:08:24;;;;;;;;;;;1.50;99.90;;;;;;5012154;28;20379;-77
2022/02/10 02:10:49;;;;;;;;;;;1.40;99.90;;;;;;5029308;28;19963;-77
2022/02/10 02:13:15;;;;;;;;;;;1.40;99.90;;;;;;5027699;28;20352;-78
2022/02/10 02:15:41;;;;;;;;;;;1.40;99.90;;;;;;5021403;28;20314;-78
2022/02/10 02:18:06;;;;;;;;;;;1.40;99.90;;;;;;5029859;28;19917;-77
2022/02/10 02:20:32;;;;;;;;;;;1.40;99.90;;;;;;5013373;28;20642;-77
2022/02/10 02:22:57;;;;;;;;;;;1.30;99.90;;;;;;5029357;28;19913;-77
2022/02/10 02:25:23;;;;;;;;;;;1.30;99.90;;;;;;5012398;28;20000;-77
2022/02/10 02:27:52;;;;;;;;;;;1.30;99.90;;;;;;5001468;28;20024;-78
2022/02/10 02:30:38;;;;;;;;;;;1.40;99.90;;;;;;5016892;28;19913;-77
2022/02/10 02:33:37;;;;;;;;;;;1.40;99.90;;;;;;5028860;28;19914;-77
2022/02/10 02:36:56;;;;;;;;;;;1.30;99.90;;;;;;5021518;28;19925;-78
2022/02/10 03:06:03;;;;;;;;;;;1.10;99.90;;;;;;5003236;28;19916;-79
2022/02/10 03:08:38;;;;;;;;;;;1.10;99.90;;;;;;5032036;28;19923;-79
2022/02/10 03:11:10;;;;;;;;;;;1.10;99.90;;;;;;5038312;28;20297;-80
2022/02/10 03:13:41;;;;;;;;;;;1.10;99.90;;;;;;5019880;28;20101;-79
2022/02/10 04:31:27;;;;;;;;;;;0.60;99.90;;;;;;5028717;28;19921;-79
2022/02/10 05:14:57;;;;;;;;;;;0.50;99.90;;;;;;5050804;28;19913;-79
2022/02/10 05:16:59;;;;;;;;;;;0.40;99.90;;;;;;5034822;28;19917;-80
2022/02/10 05:35:40;;;;;;;;;;;0.20;99.90;;;;;;5036396;28;19964;-79
2022/02/10 05:38:11;;;;;;;;;;;0.30;99.90;;;;;;5005146;28;19932;-80
2022/02/10 06:02:24;;;;;;;;;;;0.30;99.90;;;;;;5038089;28;19917;-78
2022/02/10 07:05:00;;;;;;;;;;;0.50;99.90;;;;;;5037456;28;19955;-78
2022/02/10 07:59:05;;;;;;;;;;;1.40;99.90;;;;;;5045234;28;19917;-78
2022/02/10 08:53:50;;;;;;;;;;;2.40;99.90;;;;;;5013504;28;19979;-79
2022/02/10 09:17:09;;;;;;;;;;;3.20;99.90;;;;;;5020601;28;19967;-79
2022/02/10 09:58:00;;;;;;;;;;;4.90;99.90;;;;;;5031651;28;19943;-78
2022/02/10 10:03:37;;;;;;;;;;;5.10;99.90;;;;;;4996187;28;20466;-78
2022/02/10 10:06:40;;;;;;;;;;;5.20;99.90;;;;;;5013721;28;19940;-78
2022/02/10 10:09:13;;;;;;;;;;;5.40;99.90;;;;;;5027877;28;19920;-79
2022/02/10 10:14:30;;;;;;;;;;;5.60;99.90;;;;;;5031889;28;20023;-78
2022/02/10 10:51:09;;;;;;;;;;;6.50;99.90;;;;;;5015428;28;20000;-78
2022/02/10 10:56:19;;;;;;;;;;;6.50;99.90;;;;;;5034393;28;20375;-78
2022/02/10 11:38:11;;;;;;;;;;;7.30;99.90;;;;;;5034121;28;19918;-79
2022/02/10 13:36:21;;;;;;;;;;;7.90;99.90;;;;;;5030361;28;20008;-80
2022/02/10 14:14:10;;;;;;;;;;;7.10;99.90;;;;;;5026200;28;19918;-81
2022/02/10 14:16:52;;;;;;;;;;;7.00;99.90;;;;;;5022803;28;19920;-82
2022/02/10 14:22:53;;;;;;;;;;;7.00;99.90;;;;;;5019944;28;19971;-80
2022/02/10 14:27:29;;;;;;;;;;;7.00;99.90;;;;;;5033355;28;19964;-80
2022/02/10 14:29:54;;;;;;;;;;;6.90;99.90;;;;;;5047575;28;19955;-80
2022/02/10 14:32:24;;;;;;;;;;;6.90;99.90;;;;;;5014464;28;20560;-81
2022/02/10 14:34:52;;;;;;;;;;;6.80;99.90;;;;;;5033453;28;19921;-80
2022/02/10 14:43:08;;;;;;;;;;;6.80;99.90;;;;;;4962414;28;19929;-81
2022/02/10 15:29:37;;;;;;;;;;;6.30;99.90;;;;;;5018096;28;19924;-79
2022/02/10 16:16:54;;;;;;;;;;;6.30;99.90;;;;;;5035624;28;20346;-81
2022/02/10 16:19:19;;;;;;;;;;;6.30;99.90;;;;;;5016434;28;20347;-80
2022/02/10 16:21:57;;;;;;;;;;;6.30;99.90;;;;;;5019009;28;19971;-80
2022/02/10 16:24:30;;;;;;;;;;;6.30;99.90;;;;;;5030387;28;20008;-79
2022/02/10 16:26:59;;;;;;;;;;;6.30;99.90;;;;;;4997350;28;20000;-80
2022/02/10 16:29:25;;;;;;;;;;;6.30;99.90;;;;;;5030878;28;19919;-79
2022/02/10 16:31:51;;;;;;;;;;;6.20;99.90;;;;;;4998048;28;19917;-79
2022/02/10 16:34:17;;;;;;;;;;;6.20;99.90;;;;;;5014209;28;19917;-79
2022/02/10 16:36:43;;;;;;;;;;;6.20;99.90;;;;;;5041817;28;19939;-79
2022/02/10 16:39:09;;;;;;;;;;;6.10;99.90;;;;;;5037620;28;19914;-78
2022/02/10 16:41:35;;;;;;;;;;;6.10;99.90;;;;;;5021213;28;19913;-77
2022/02/10 16:44:00;;;;;;;;;;;6.10;99.90;;;;;;5031246;28;19979;-80
2022/02/10 16:46:26;;;;;;;;;;;6.10;99.90;;;;;;5017475;28;20371;-79
2022/02/10 16:48:52;;;;;;;;;;;6.10;99.90;;;;;;5011008;28;19932;-79
2022/02/10 16:51:19;;;;;;;;;;;6.10;99.90;;;;;;5002801;28;19921;-79
2022/02/10 16:53:51;;;;;;;;;;;6.20;99.90;;;;;;5025716;28;19917;-78
2022/02/10 16:56:22;;;;;;;;;;;6.20;99.90;;;;;;5017473;28;19921;-79
2022/02/10 16:59:06;;;;;;;;;;;6.20;99.90;;;;;;5000732;28;20521;-79
2022/02/10 17:16:15;;;;;;;;;;;6.10;99.90;;;;;;5026176;28;19960;-81
2022/02/10 17:25:48;;;;;;;;;;;6.00;99.90;;;;;;5023677;28;19925;-80
2022/02/10 17:28:14;;;;;;;;;;;6.00;99.90;;;;;;5044663;28;19960;-80
2022/02/10 17:31:00;;;;;;;;;;;5.90;99.90;;;;;;5015197;28;20800;-79
2022/02/10 17:33:38;;;;;;;;;;;5.80;99.90;;;;;;5006635;28;19928;-80
2022/02/10 17:36:25;;;;;;;;;;;5.80;99.90;;;;;;4999820;28;19967;-79
2022/02/10 17:41:51;;;;;;;;;;;5.70;99.90;;;;;;5031400;28;19921;-80
2022/02/10 17:44:50;;;;;;;;;;;5.60;99.90;;;;;;5020995;28;19921;-79
2022/02/10 17:52:59;;;;;;;;;;;5.60;99.90;;;;;;5027233;28;19917;-79
2022/02/10 17:55:24;;;;;;;;;;;5.70;99.90;;;;;;5016863;28;19928;-79
2022/02/10 17:57:50;;;;;;;;;;;5.80;99.90;;;;;;5031688;28;19917;-80
2022/02/10 18:00:17;;;;;;;;;;;5.80;99.90;;;;;;5009119;28;19917;-79
2022/02/10 18:02:45;;;;;;;;;;;5.70;99.90;;;;;;5047810;28;19966;-80
2022/02/10 18:05:25;;;;;;;;;;;5.80;99.90;;;;;;5020381;28;19943;-79
2022/02/10 18:07:51;;;;;;;;;;;5.70;99.90;;;;;;5018863;28;19934;-79
2022/02/10 18:15:42;;;;;;;;;;;5.70;99.90;;;;;;5019054;28;20036;-77
2022/02/10 18:18:19;;;;;;;;;;;5.70;99.90;;;;;;5022568;28;19918;-79
2022/02/10 18:20:51;;;;;;;;;;;5.80;99.90;;;;;;5006681;28;19918;-78
2022/02/10 18:23:23;;;;;;;;;;;5.80;99.90;;;;;;5009468;28;19912;-79
2022/02/10 18:26:06;;;;;;;;;;;5.80;99.90;;;;;;5038767;28;19913;-79
2022/02/10 18:28:56;;;;;;;;;;;5.80;99.90;;;;;;5042179;28;19924;-79
2022/02/10 19:08:20;;;;;;;;;;;5.80;99.90;;;;;;5034940;28;20373;-79
2022/02/10 19:10:48;;;;;;;;;;;5.80;99.90;;;;;;5011784;28;19913;-79
2022/02/10 19:13:17;;;;;;;;;;;5.70;99.90;;;;;;5015958;28;19909;-79
2022/02/10 19:15:42;;;;;;;;;;;5.80;99.90;;;;;;5014420;28;19925;-78
2022/02/10 19:18:09;;;;;;;;;;;5.70;99.90;;;;;;5014339;28;19968;-78
2022/02/10 19:20:35;;;;;;;;;;;5.60;99.90;;;;;;5000637;28;20329;-79
2022/02/10 19:23:03;;;;;;;;;;;5.60;99.90;;;;;;5014218;28;20307;-79
2022/02/10 19:25:29;;;;;;;;;;;5.60;99.90;;;;;;5025528;28;19959;-79
2022/02/10 19:27:55;;;;;;;;;;;5.60;99.90;;;;;;5019684;28;19914;-78
2022/02/10 19:30:23;;;;;;;;;;;5.60;99.90;;;;;;5043504;28;19964;-79
2022/02/10 19:32:53;;;;;;;;;;;5.50;99.90;;;;;;5032691;28;19913;-79
2022/02/10 19:35:22;;;;;;;;;;;5.40;99.90;;;;;;5027027;28;19917;-78
2022/02/10 19:37:54;;;;;;;;;;;5.40;99.90;;;;;;5025982;28;20413;-79
2022/02/10 19:40:19;;;;;;;;;;;5.30;99.90;;;;;;5027899;28;20286;-79
2022/02/10 19:42:47;;;;;;;;;;;5.30;99.90;;;;;;5030340;28;19913;-79
2022/02/10 19:45:13;;;;;;;;;;;5.30;99.90;;;;;;5022641;28;19913;-78
2022/02/10 19:47:40;;;;;;;;;;;5.20;99.90;;;;;;5031657;28;19913;-80
2022/02/10 19:50:11;;;;;;;;;;;5.20;99.90;;;;;;5033205;28;19935;-80
2022/02/10 19:52:39;;;;;;;;;;;5.20;99.90;;;;;;5031979;28;19984;-80
2022/02/10 19:55:06;;;;;;;;;;;5.20;99.90;;;;;;5032988;28;19924;-79
2022/02/10 19:57:36;;;;;;;;;;;5.20;99.90;;;;;;5027763;28;20330;-79
2022/02/10 20:00:07;;;;;;;;;;;5.10;99.90;;;;;;5035275;28;20345;-78
2022/02/10 20:02:33;;;;;;;;;;;5.10;99.90;;;;;;5026135;28;20383;-80
2022/02/10 20:04:58;;;;;;;;;;;5.00;99.90;;;;;;5025646;28;19928;-79
2022/02/10 20:07:24;;;;;;;;;;;5.00;99.90;;;;;;5016040;28;20508;-80
2022/02/10 20:09:51;;;;;;;;;;;5.10;99.90;;;;;;5016952;28;19956;-79
2022/02/10 20:12:16;;;;;;;;;;;5.10;99.90;;;;;;5010100;28;19917;-80
2022/02/10 20:14:42;;;;;;;;;;;5.00;99.90;;;;;;5027218;28;20397;-79
2022/02/10 20:17:08;;;;;;;;;;;5.00;99.90;;;;;;5010284;28;20322;-80
2022/02/10 20:19:33;;;;;;;;;;;5.00;99.90;;;;;;5025040;28;19959;-80
2022/02/10 20:21:59;;;;;;;;;;;4.90;99.90;;;;;;5009259;28;19917;-81
2022/02/10 20:24:25;;;;;;;;;;;4.90;99.90;;;;;;5028241;28;19952;-80
2022/02/10 20:26:50;;;;;;;;;;;4.90;99.90;;;;;;5011037;28;20003;-79
2022/02/10 20:29:16;;;;;;;;;;;5.00;99.90;;;;;;5014043;28;19913;-80
2022/02/10 20:31:42;;;;;;;;;;;5.00;99.90;;;;;;5029659;28;19985;-79
2022/02/10 20:34:09;;;;;;;;;;;5.00;99.90;;;;;;5011567;28;19956;-81
2022/02/10 20:36:36;;;;;;;;;;;5.00;99.90;;;;;;5017233;28;19960;-80
2022/02/10 20:39:03;;;;;;;;;;;5.00;99.90;;;;;;5006935;28;20433;-80
2022/02/10 20:41:32;;;;;;;;;;;5.00;99.90;;;;;;5020509;28;19917;-79
2022/02/10 20:44:01;;;;;;;;;;;5.00;99.90;;;;;;5009107;28;20954;-79
2022/02/10 20:46:29;;;;;;;;;;;5.00;99.90;;;;;;5026922;28;20328;-78
2022/02/10 20:48:55;;;;;;;;;;;5.10;99.90;;;;;;5004409;28;19956;-80
2022/02/10 20:51:20;;;;;;;;;;;5.10;99.90;;;;;;5025522;28;19924;-81
2022/02/10 20:53:47;;;;;;;;;;;5.10;99.90;;;;;;5030852;28;19913;-79
2022/02/10 20:56:14;;;;;;;;;;;5.10;99.90;;;;;;5019194;28;19917;-80
2022/02/10 20:58:41;;;;;;;;;;;5.10;99.90;;;;;;5025724;28;19980;-80
2022/02/10 21:01:10;;;;;;;;;;;5.00;99.90;;;;;;5027802;28;20106;-79
2022/02/10 21:03:37;;;;;;;;;;;5.00;99.90;;;;;;5074456;22;19928;-78
2022/02/10 21:06:33;;;;;;;;;;;5.00;99.90;;;;;;5016170;28;20406;-79
2022/02/10 21:09:05;;;;;;;;;;;5.00;99.90;;;;;;5048200;28;20274;-79
2022/02/10 21:11:31;;;;;;;;;;;4.90;99.90;;;;;;5053767;28;19917;-78
2022/02/10 21:13:58;;;;;;;;;;;4.90;99.90;;;;;;5044085;28;20008;-78
2022/02/10 21:16:25;;;;;;;;;;;4.90;99.90;;;;;;5027614;28;20441;-78
2022/02/10 21:18:51;;;;;;;;;;;4.80;99.90;;;;;;5053172;28;19920;-78
2022/02/10 21:21:18;;;;;;;;;;;4.80;99.90;;;;;;5029618;28;19969;-78
2022/02/10 21:26:15;;;;;;;;;;;4.80;99.90;;;;;;5030723;28;19939;-78
2022/02/10 21:28:42;;;;;;;;;;;4.80;99.90;;;;;;5030000;28;20728;-78
2022/02/10 21:31:08;;;;;;;;;;;4.90;99.90;;;;;;5045085;28;19912;-78
2022/02/10 21:38:59;;;;;;;;;;;4.90;99.90;;;;;;5047345;28;19953;-79
2022/02/10 22:20:44;;;;;;;;;;;4.80;99.90;;;;;;5047158;28;19956;-77
2022/02/10 22:23:19;;;;;;;;;;;4.70;99.90;;;;;;5042825;28;19925;-80
2022/02/10 22:25:46;;;;;;;;;;;4.70;99.90;;;;;;5028802;28;20058;-78
2022/02/10 22:31:16;;;;;;;;;;;4.70;99.90;;;;;;5027365;28;20402;-78
2022/02/10 22:34:05;;;;;;;;;;;4.60;99.90;;;;;;5026492;28;19917;-78
2022/02/10 22:36:34;;;;;;;;;;;4.70;99.90;;;;;;5032769;28;19917;-79
2022/02/10 22:39:02;;;;;;;;;;;4.70;99.90;;;;;;5055285;28;19917;-78
2022/02/10 22:41:28;;;;;;;;;;;4.70;99.90;;;;;;5029927;28;20063;-79
2022/02/10 22:43:54;;;;;;;;;;;4.70;99.90;;;;;;5037780;28;19909;-78
2022/02/10 22:46:20;;;;;;;;;;;4.70;99.90;;;;;;5047426;28;19938;-76
2022/02/10 22:48:48;;;;;;;;;;;4.60;99.90;;;;;;5033542;28;19943;-78
2022/02/10 22:51:14;;;;;;;;;;;4.70;99.90;;;;;;5045701;28;19967;-79
2022/02/10 22:53:40;;;;;;;;;;;4.60;99.90;;;;;;5017719;28;19916;-79
2022/02/10 22:56:07;;;;;;;;;;;4.60;99.90;;;;;;5050691;28;19921;-79
2022/02/10 22:58:32;;;;;;;;;;;4.60;99.90;;;;;;5049866;28;20294;-77
2022/02/10 23:00:58;;;;;;;;;;;4.60;99.90;;;;;;5033549;28;19917;-77
2022/02/10 23:03:25;;;;;;;;;;;4.70;99.90;;;;;;5033475;28;19971;-78
2022/02/10 23:05:52;;;;;;;;;;;4.60;99.90;;;;;;5015062;28;19963;-77
2022/02/10 23:08:18;;;;;;;;;;;4.60;99.90;;;;;;5048520;28;20357;-78
2022/02/10 23:10:47;;;;;;;;;;;4.60;99.90;;;;;;5048799;28;20302;-78
2022/02/10 23:13:24;;;;;;;;;;;4.60;99.90;;;;;;5050135;28;19962;-78
2022/02/10 23:15:50;;;;;;;;;;;4.50;99.90;;;;;;5054962;28;19917;-80
2022/02/10 23:18:17;;;;;;;;;;;4.50;99.90;;;;;;5049242;28;19919;-80
2022/02/10 23:20:44;;;;;;;;;;;4.50;99.90;;;;;;5049118;28;20389;-77
2022/02/10 23:23:11;;;;;;;;;;;4.50;99.90;;;;;;5052033;28;19999;-77
2022/02/10 23:25:41;;;;;;;;;;;4.40;99.90;;;;;;5051427;28;19920;-80
2022/02/10 23:28:09;;;;;;;;;;;4.40;99.90;;;;;;5048796;28;19913;-80
2022/02/10 23:30:35;;;;;;;;;;;4.40;99.90;;;;;;5049059;28;19939;-77
2022/02/10 23:33:09;;;;;;;;;;;4.50;99.90;;;;;;5056138;28;19920;-79
2022/02/10 23:38:22;;;;;;;;;;;4.40;99.90;;;;;;5031257;28;20016;-79
2022/02/10 23:43:36;;;;;;;;;;;4.50;99.90;;;;;;5017025;28;20478;-78
2022/02/10 23:46:02;;;;;;;;;;;4.50;99.90;;;;;;5032120;28;19959;-80
2022/02/10 23:48:31;;;;;;;;;;;4.40;99.90;;;;;;5019822;28;20501;-79
2022/02/10 23:50:56;;;;;;;;;;;4.40;99.90;;;;;;5023965;28;19952;-78
2022/02/10 23:53:22;;;;;;;;;;;4.40;99.90;;;;;;5044313;28;20375;-79
2022/02/10 23:55:48;;;;;;;;;;;4.40;99.90;;;;;;5024126;28;19927;-79
